createdAt,value
2019-03-05T00:01:53.866Z,66.70
2019-03-05T00:04:27.983Z,67.10
2019-03-05T00:06:58.966Z,67.30
2019-03-05T00:09:54.837Z,67.20
2019-03-05T00:12:30.383Z,67.10
2019-03-05T00:15:27.139Z,67.20
2019-03-05T00:18:14.659Z,67.50
2019-03-05T00:21:02.756Z,67.70
2019-03-05T00:24:09.328Z,67.80
2019-03-05T00:26:40.035Z,68.00
2019-03-05T00:29:45.528Z,68.10
2019-03-05T00:32:15.733Z,68.10
2019-03-05T00:35:15.754Z,68.60
2019-03-05T00:38:02.814Z,68.90
2019-03-05T00:41:03.694Z,69.00
2019-03-05T00:44:03.308Z,69.30
2019-03-05T00:46:45.659Z,69.60
2019-03-05T00:49:48.761Z,70.10
2019-03-05T00:52:41.156Z,70.60
2019-03-05T00:55:55.685Z,70.90
2019-03-05T00:58:48.404Z,71.20
2019-03-05T01:01:48.662Z,71.40
2019-03-05T01:04:52.014Z,71.60
2019-03-05T01:07:24.960Z,71.80
2019-03-05T01:09:54.979Z,72.10
2019-03-05T01:12:25.561Z,72.10
2019-03-05T01:14:59.539Z,72.20
2019-03-05T01:17:29.928Z,71.60
2019-03-05T01:20:19.804Z,71.50
2019-03-05T01:22:50.533Z,71.00
2019-03-05T01:25:37.107Z,70.80
2019-03-05T01:28:07.290Z,70.60
2019-03-05T01:31:11.549Z,70.40
2019-03-05T01:33:53.321Z,70.50
2019-03-05T01:36:26.139Z,70.30
2019-03-05T01:39:13.309Z,70.10
2019-03-05T01:41:45.012Z,69.50
2019-03-05T01:44:14.532Z,69.50
2019-03-05T01:46:47.053Z,69.20
2019-03-05T01:49:21.567Z,69.30
2019-03-05T01:52:16.035Z,69.60
2019-03-05T01:54:50.833Z,69.90
2019-03-05T01:57:41.978Z,70.10
2019-03-05T02:00:14.413Z,69.90
2019-03-05T02:02:46.617Z,70.00
2019-03-05T02:05:47.472Z,70.10
2019-03-05T02:08:18.617Z,70.00
2019-03-05T02:10:50.549Z,69.90
2019-03-05T02:13:20.187Z,69.80
2019-03-05T02:15:59.000Z,70.00
2019-03-05T02:18:30.267Z,70.20
2019-03-05T02:21:01.545Z,70.00
2019-03-05T02:23:44.579Z,70.10
2019-03-05T02:26:52.732Z,69.80
2019-03-05T02:29:51.008Z,69.70
2019-03-05T02:33:01.173Z,69.90
2019-03-05T02:36:05.170Z,70.00
2019-03-05T02:39:11.029Z,69.90
2019-03-05T02:42:07.903Z,69.60
2019-03-05T02:45:14.438Z,70.10
2019-03-05T02:48:27.171Z,70.10
2019-03-05T02:51:28.769Z,70.50
2019-03-05T02:54:46.776Z,70.60
2019-03-05T02:57:14.695Z,70.60
2019-03-05T02:59:44.085Z,70.60
2019-03-05T03:05:44.830Z,71.00
2019-03-05T03:08:14.251Z,71.20
2019-03-05T03:10:46.175Z,71.00
2019-03-05T03:13:16.427Z,71.10
2019-03-05T03:18:55.469Z,70.80
2019-03-05T03:21:24.880Z,70.30
2019-03-05T03:23:54.500Z,70.30
2019-03-05T03:26:27.713Z,70.50
2019-03-05T03:28:58.369Z,70.60
2019-03-05T03:31:36.781Z,70.70
2019-03-05T03:34:07.315Z,70.40
2019-03-05T03:36:37.531Z,70.40
2019-03-05T03:39:06.850Z,70.80
2019-03-05T03:41:42.766Z,71.00
2019-03-05T03:44:11.732Z,71.00
2019-03-05T03:49:36.385Z,71.00
2019-03-05T03:52:07.018Z,70.80
2019-03-05T03:54:53.199Z,70.60
2019-03-05T03:57:23.920Z,70.60
2019-03-05T03:59:57.289Z,70.80
2019-03-05T04:02:27.279Z,71.10
2019-03-05T04:04:58.412Z,71.30
2019-03-05T04:07:28.891Z,71.60
2019-03-05T04:10:01.703Z,71.80
2019-03-05T04:12:32.720Z,71.90
2019-03-05T04:15:03.721Z,72.10
2019-03-05T04:17:33.262Z,72.20
2019-03-05T04:20:03.744Z,72.20
2019-03-05T04:22:44.732Z,72.20
2019-03-05T04:25:15.406Z,72.10
2019-03-05T04:27:45.248Z,72.30
2019-03-05T04:30:16.413Z,72.30
2019-03-05T04:32:46.849Z,72.40
2019-03-05T04:35:28.437Z,72.20
2019-03-05T04:37:58.314Z,72.20
2019-03-05T04:40:27.938Z,72.20
2019-03-05T04:42:59.234Z,72.30
2019-03-05T04:45:46.868Z,72.40
2019-03-05T04:48:17.772Z,72.60
2019-03-05T04:50:51.457Z,72.70
2019-03-05T04:53:24.378Z,72.70
2019-03-05T04:56:00.568Z,73.00
2019-03-05T04:58:32.954Z,73.40
2019-03-05T05:01:08.407Z,73.50
2019-03-05T05:03:40.654Z,73.80
2019-03-05T05:06:09.918Z,74.10
2019-03-05T05:08:39.495Z,74.20
2019-03-05T05:11:11.278Z,74.30
2019-03-05T05:13:46.088Z,74.50
2019-03-05T05:16:24.298Z,74.40
2019-03-05T05:18:54.730Z,74.60
2019-03-05T05:21:26.135Z,74.70
2019-03-05T05:24:06.229Z,74.80
2019-03-05T05:26:46.460Z,74.90
2019-03-05T05:29:16.661Z,75.10
2019-03-05T05:31:50.027Z,75.20
2019-03-05T05:34:26.878Z,75.30
2019-03-05T05:36:59.654Z,75.40
2019-03-05T05:40:05.130Z,75.40
2019-03-05T05:42:39.160Z,75.50
2019-03-05T05:45:27.507Z,75.60
2019-03-05T05:48:05.289Z,75.60
2019-03-05T05:50:37.728Z,75.60
2019-03-05T05:54:21.221Z,75.70
2019-03-05T05:57:36.822Z,75.70
2019-03-05T06:00:15.642Z,75.80
2019-03-05T06:03:08.427Z,75.90
2019-03-05T06:05:45.883Z,75.80
2019-03-05T06:08:40.159Z,75.90
2019-03-05T06:11:33.940Z,75.80
2019-03-05T06:28:38.372Z,76.20
2019-03-05T06:41:40.903Z,76.50
2019-03-05T06:44:11.145Z,76.50
2019-03-05T06:46:47.231Z,76.40
2019-03-05T07:00:06.556Z,76.60
2019-03-05T07:03:02.118Z,76.60
2019-03-05T07:06:44.575Z,76.60
2019-03-05T07:10:00.929Z,76.60
2019-03-05T07:13:09.270Z,76.50
2019-03-05T07:20:01.709Z,76.30
2019-03-05T07:22:51.107Z,76.20
2019-03-05T07:25:43.981Z,76.10
2019-03-05T07:28:13.626Z,76.00
2019-03-05T07:30:42.973Z,76.10
2019-03-05T07:33:12.315Z,76.10
2019-03-05T07:35:48.333Z,76.10
2019-03-05T07:38:17.322Z,76.10
2019-03-05T07:40:46.391Z,75.80
2019-03-05T07:43:15.427Z,75.80
2019-03-05T07:45:44.608Z,75.80
2019-03-05T07:48:13.577Z,75.80
2019-03-05T07:50:42.616Z,75.60
2019-03-05T07:53:11.849Z,75.60
2019-03-05T07:56:25.566Z,75.50
2019-03-05T07:58:57.642Z,75.30
2019-03-05T08:01:26.598Z,75.20
2019-03-05T08:03:55.774Z,75.00
2019-03-05T08:06:24.677Z,75.00
2019-03-05T08:09:30.286Z,75.10
2019-03-05T08:12:36.597Z,75.00
2019-03-05T08:15:31.959Z,74.80
2019-03-05T08:18:00.957Z,74.90
2019-03-05T08:20:30.118Z,74.60
2019-03-05T08:22:59.137Z,74.50
2019-03-05T08:25:34.700Z,74.60
2019-03-05T08:28:04.988Z,74.50
2019-03-05T08:30:33.986Z,74.40
2019-03-05T08:33:03.136Z,74.20
2019-03-05T08:35:33.685Z,74.20
2019-03-05T08:38:02.588Z,74.30
2019-03-05T08:40:31.669Z,74.40
2019-03-05T08:43:00.865Z,74.30
2019-03-05T08:45:30.966Z,74.00
2019-03-05T08:47:59.957Z,73.80
2019-03-05T08:50:30.621Z,73.80
2019-03-05T08:52:59.685Z,73.80
2019-03-05T08:55:33.132Z,73.90
2019-03-05T08:58:02.081Z,74.00
2019-03-05T09:00:31.026Z,73.90
2019-03-05T09:03:00.077Z,73.80
2019-03-05T09:05:34.317Z,73.70
2019-03-05T09:08:03.336Z,74.00
2019-03-05T09:10:32.701Z,74.00
2019-03-05T09:13:01.754Z,73.60
2019-03-05T09:15:32.741Z,73.40
2019-03-05T09:18:01.729Z,73.40
2019-03-05T09:20:30.791Z,73.60
2019-03-05T09:22:59.845Z,73.70
2019-03-05T09:25:29.823Z,73.50
2019-03-05T09:27:59.110Z,73.80
2019-03-05T09:30:28.109Z,73.70
2019-03-05T09:32:58.317Z,73.70
2019-03-05T09:35:27.654Z,73.70
2019-03-05T09:37:56.509Z,73.70
2019-03-05T09:40:25.933Z,73.80
2019-03-05T09:42:54.962Z,73.70
2019-03-05T09:45:34.882Z,73.50
2019-03-05T09:48:04.281Z,73.20
2019-03-05T09:50:33.558Z,72.80
2019-03-05T09:53:02.852Z,72.90
2019-03-05T09:55:35.281Z,73.00
2019-03-05T09:58:08.418Z,72.90
2019-03-05T10:00:35.487Z,72.50
2019-03-05T10:03:04.949Z,72.40
2019-03-05T10:05:34.208Z,72.40
2019-03-05T10:08:03.370Z,72.50
2019-03-05T10:10:33.406Z,72.60
2019-03-05T10:13:04.351Z,72.50
2019-03-05T10:16:37.942Z,72.10
2019-03-05T10:19:07.278Z,72.20
2019-03-05T10:21:46.260Z,72.40
2019-03-05T10:24:11.530Z,72.30
2019-03-05T10:26:43.327Z,72.30
2019-03-05T10:29:14.631Z,72.30
2019-03-05T10:31:46.811Z,71.90
2019-03-05T10:34:15.858Z,72.00
2019-03-05T10:36:46.190Z,72.00
2019-03-05T10:39:30.874Z,72.00
2019-03-05T10:42:00.479Z,72.20
2019-03-05T10:44:47.029Z,72.10
2019-03-05T10:47:25.046Z,72.10
2019-03-05T10:50:50.454Z,72.00
2019-03-05T10:56:59.497Z,72.10
2019-03-05T10:59:38.842Z,72.20
2019-03-05T11:02:15.430Z,72.20
2019-03-05T11:05:23.908Z,72.00
2019-03-05T11:08:18.464Z,72.30
2019-03-05T11:14:02.581Z,72.50
2019-03-05T11:16:40.500Z,72.50
2019-03-05T11:19:34.065Z,72.40
2019-03-05T11:22:39.791Z,72.50
2019-03-05T11:25:35.893Z,72.50
2019-03-05T11:28:06.868Z,72.40
2019-03-05T11:31:16.945Z,72.40
2019-03-05T11:34:13.454Z,72.40
2019-03-05T11:36:47.145Z,72.40
2019-03-05T11:39:21.645Z,72.10
2019-03-05T11:42:22.127Z,71.80
2019-03-05T11:45:07.457Z,71.70
2019-03-05T11:47:39.286Z,71.90
2019-03-05T11:50:21.387Z,71.70
2019-03-05T11:52:52.912Z,71.50
2019-03-05T11:55:30.362Z,71.40
2019-03-05T12:01:10.251Z,71.60
2019-03-05T12:03:43.902Z,71.40
2019-03-05T12:07:42.851Z,71.40
2019-03-05T12:10:46.041Z,71.10
2019-03-05T12:13:17.601Z,71.80
2019-03-05T12:16:04.444Z,71.40
2019-03-05T12:18:44.476Z,71.20
2019-03-05T12:21:13.545Z,71.30
2019-03-05T12:23:52.146Z,71.30
2019-03-05T12:26:26.207Z,71.20
2019-03-05T12:28:57.491Z,71.40
2019-03-05T12:31:34.214Z,71.20
2019-03-05T12:34:07.260Z,71.00
2019-03-05T12:36:41.785Z,71.00
2019-03-05T12:39:17.228Z,71.20
2019-03-05T12:41:47.312Z,71.30
2019-03-05T12:44:36.394Z,71.20
2019-03-05T12:47:15.888Z,71.40
2019-03-05T12:49:48.325Z,71.70
2019-03-05T12:52:21.804Z,71.80
2019-03-05T12:55:21.713Z,71.80
2019-03-05T12:58:31.215Z,71.50
2019-03-05T13:01:04.832Z,71.40
2019-03-05T13:03:42.264Z,71.70
2019-03-05T13:06:15.895Z,71.80
2019-03-05T13:08:49.669Z,72.00
2019-03-05T13:11:21.750Z,71.90
2019-03-05T13:14:05.948Z,71.80
2019-03-05T13:16:25.967Z,71.90
2019-03-05T13:18:58.638Z,71.80
2019-03-05T13:21:36.254Z,71.80
2019-03-05T13:24:13.904Z,71.50
2019-03-05T13:26:48.920Z,71.30
2019-03-05T13:29:22.691Z,71.40
2019-03-05T13:31:54.233Z,71.10
2019-03-05T13:34:56.980Z,70.90
2019-03-05T13:37:50.947Z,71.00
2019-03-05T13:40:30.135Z,71.00
2019-03-05T13:43:21.640Z,71.20
2019-03-05T13:46:04.601Z,71.10
2019-03-05T13:49:14.400Z,71.20
2019-03-05T13:52:05.723Z,71.60
2019-03-05T13:55:17.884Z,71.30
2019-03-05T13:58:13.429Z,71.50
2019-03-05T14:00:47.208Z,71.50
2019-03-05T14:03:25.744Z,71.70
2019-03-05T14:06:36.753Z,71.70
2019-03-05T14:09:23.316Z,71.80
2019-03-05T14:12:21.458Z,71.80
2019-03-05T14:14:52.209Z,71.80
2019-03-05T14:18:31.134Z,71.80
2019-03-05T14:21:40.163Z,71.50
2019-03-05T14:24:10.777Z,71.40
2019-03-05T14:27:04.237Z,71.40
2019-03-05T14:29:41.029Z,71.10
2019-03-05T14:32:14.661Z,71.10
2019-03-05T14:34:55.623Z,71.10
2019-03-05T14:37:24.871Z,71.20
2019-03-05T14:39:55.165Z,71.30
2019-03-05T14:42:25.441Z,71.50
2019-03-05T14:44:54.994Z,71.20
2019-03-05T14:47:34.407Z,70.90
2019-03-05T14:50:05.316Z,71.30
2019-03-05T14:52:35.586Z,71.60
2019-03-05T14:55:15.526Z,72.10
2019-03-05T14:57:46.559Z,72.10
2019-03-05T15:00:23.715Z,72.20
2019-03-05T15:02:56.336Z,72.40
2019-03-05T15:05:28.706Z,72.60
2019-03-05T15:08:01.890Z,72.50
2019-03-05T15:10:42.402Z,72.70
2019-03-05T15:13:16.225Z,72.70
2019-03-05T15:15:45.928Z,72.60
2019-03-05T15:18:19.101Z,72.60
2019-03-05T15:20:49.956Z,72.60
2019-03-05T15:23:19.658Z,72.30
2019-03-05T15:25:50.172Z,72.20
2019-03-05T15:28:20.586Z,72.20
2019-03-05T15:30:57.604Z,72.40
2019-03-05T15:33:26.607Z,72.40
2019-03-05T15:35:56.864Z,72.30
2019-03-05T15:38:29.695Z,72.20
2019-03-05T15:40:58.735Z,72.20
2019-03-05T15:43:28.501Z,72.30
2019-03-05T15:45:58.202Z,72.40
2019-03-05T15:48:27.672Z,72.40
2019-03-05T15:51:05.255Z,72.50
2019-03-05T15:53:34.604Z,72.30
2019-03-05T15:56:09.586Z,72.10
2019-03-05T15:58:42.497Z,72.10
2019-03-05T16:01:18.799Z,72.10
2019-03-05T16:03:45.856Z,72.00
2019-03-05T16:06:44.417Z,72.00
2019-03-05T16:09:17.905Z,72.00
2019-03-05T16:11:49.319Z,72.00
2019-03-05T16:14:21.502Z,72.00
2019-03-05T16:16:58.157Z,72.10
2019-03-05T16:19:27.805Z,72.30
2019-03-05T16:21:59.226Z,72.40
2019-03-05T16:24:51.137Z,72.40
2019-03-05T16:27:30.204Z,72.40
2019-03-05T16:34:01.218Z,72.60
2019-03-05T16:37:17.296Z,72.50
2019-03-05T16:43:27.880Z,72.50
2019-03-05T16:46:34.135Z,72.60
2019-03-05T16:49:27.214Z,72.70
2019-03-05T16:52:21.509Z,72.90
2019-03-05T16:55:31.767Z,72.90
2019-03-05T16:58:20.384Z,72.80
2019-03-05T17:01:10.325Z,72.70
2019-03-05T17:04:11.826Z,72.40
2019-03-05T17:07:05.209Z,72.30
2019-03-05T17:09:55.768Z,72.20
2019-03-05T17:12:34.765Z,72.20
2019-03-05T17:15:26.762Z,72.00
2019-03-05T17:18:06.210Z,71.90
2019-03-05T17:20:36.407Z,71.80
2019-03-05T17:23:15.027Z,71.80
2019-03-05T17:25:47.376Z,71.60
2019-03-05T17:28:16.525Z,71.80
2019-03-05T17:30:45.898Z,71.60
2019-03-05T17:33:17.395Z,71.50
2019-03-05T17:36:02.622Z,71.60
2019-03-05T17:38:33.471Z,71.70
2019-03-05T17:41:07.327Z,71.80
2019-03-05T17:43:38.013Z,72.00
2019-03-05T17:46:10.009Z,71.90
2019-03-05T17:48:40.335Z,71.90
2019-03-05T17:51:14.285Z,72.00
2019-03-05T17:53:44.935Z,71.90
2019-03-05T17:56:22.298Z,72.00
2019-03-05T17:58:54.816Z,72.10
2019-03-05T18:01:27.668Z,72.30
2019-03-05T18:03:59.662Z,72.30
2019-03-05T18:06:34.268Z,72.40
2019-03-05T18:09:08.717Z,72.50
2019-03-05T18:11:37.889Z,72.60
2019-03-05T18:14:07.269Z,72.70
2019-03-05T18:16:37.947Z,72.70
2019-03-05T18:19:07.302Z,72.80
2019-03-05T18:21:38.169Z,72.70
2019-03-05T18:24:07.237Z,72.90
2019-03-05T18:26:38.902Z,72.80
2019-03-05T18:29:11.014Z,72.90
2019-03-05T18:31:48.182Z,72.80
2019-03-05T18:34:17.457Z,72.70
2019-03-05T18:36:48.091Z,72.60
2019-03-05T18:39:18.866Z,72.50
2019-03-05T18:41:53.905Z,72.70
2019-03-05T18:44:29.673Z,72.90
2019-03-05T18:47:04.156Z,72.90
2019-03-05T18:49:40.521Z,72.80
2019-03-05T18:52:13.189Z,72.50
2019-03-05T18:54:57.662Z,72.40
2019-03-05T18:57:36.485Z,72.30
2019-03-05T19:00:14.645Z,72.40
2019-03-05T19:02:48.000Z,72.60
2019-03-05T19:05:21.197Z,72.50
2019-03-05T19:07:51.925Z,72.40
2019-03-05T19:10:43.944Z,72.40
2019-03-05T19:13:14.784Z,72.30
2019-03-05T19:15:52.329Z,72.30
2019-03-05T19:18:29.229Z,72.30
2019-03-05T19:20:58.995Z,72.30
2019-03-05T19:23:30.607Z,72.40
2019-03-05T19:26:06.913Z,72.40
2019-03-05T19:28:38.717Z,72.30
2019-03-05T19:31:29.938Z,72.20
2019-03-05T19:33:43.855Z,72.10
2019-03-05T19:36:20.445Z,72.70
2019-03-05T19:38:51.108Z,72.10
2019-03-05T19:41:20.502Z,72.00
2019-03-05T19:43:57.056Z,71.80
2019-03-05T19:46:41.041Z,71.90
2019-03-05T19:49:12.150Z,71.90
2019-03-05T19:51:52.089Z,71.80
2019-03-05T19:54:23.115Z,71.80
2019-03-05T19:56:53.875Z,71.80
2019-03-05T19:59:23.217Z,71.90
2019-03-05T20:02:06.288Z,72.10
2019-03-05T20:04:52.242Z,71.90
2019-03-05T20:07:22.348Z,71.60
2019-03-05T20:09:52.229Z,71.60
2019-03-05T20:13:08.954Z,71.50
2019-03-05T20:16:09.062Z,71.40
2019-03-05T20:18:48.478Z,71.10
2019-03-05T20:24:38.724Z,71.00
2019-03-05T20:27:32.264Z,70.80
2019-03-05T20:30:05.841Z,71.00
2019-03-05T20:32:40.385Z,71.00
2019-03-05T20:35:20.644Z,71.00
2019-03-05T20:38:01.507Z,71.20
2019-03-05T20:40:57.363Z,70.90
2019-03-05T20:43:32.883Z,70.60
2019-03-05T20:46:25.886Z,70.40
2019-03-05T20:48:58.775Z,70.40
2019-03-05T20:51:31.105Z,70.40
2019-03-05T20:54:30.191Z,70.40
2019-03-05T20:57:01.581Z,70.40
2019-03-05T20:59:44.858Z,70.30
2019-03-05T21:02:43.808Z,70.20
2019-03-05T21:05:24.001Z,70.30
2019-03-05T21:11:30.317Z,70.10
2019-03-05T21:14:35.748Z,69.90
2019-03-05T21:37:04.188Z,69.80
2019-03-05T21:40:02.540Z,69.70
2019-03-05T21:42:36.341Z,69.70
2019-03-05T21:49:16.891Z,69.60
2019-03-05T21:55:13.838Z,69.40
2019-03-05T21:57:48.419Z,69.30
2019-03-05T22:10:01.218Z,69.40
2019-03-05T22:12:31.083Z,69.40
2019-03-05T22:15:10.346Z,69.10
2019-03-05T22:17:40.886Z,69.30
2019-03-05T22:20:12.035Z,69.20
2019-03-05T22:22:41.545Z,69.30
2019-03-05T22:25:14.014Z,69.10
2019-03-05T22:27:43.104Z,69.30
2019-03-05T22:30:20.789Z,69.20
2019-03-05T22:32:52.632Z,69.40
2019-03-05T22:35:23.545Z,69.20
2019-03-05T22:37:55.907Z,69.20
2019-03-05T22:40:27.862Z,69.20
2019-03-05T22:43:01.098Z,69.20
2019-03-05T22:45:30.527Z,69.30
2019-03-05T22:48:03.419Z,69.30
2019-03-05T22:50:32.560Z,69.40
2019-03-05T22:53:01.846Z,69.60
2019-03-05T22:55:31.444Z,69.60
2019-03-05T22:58:04.293Z,69.50
2019-03-05T23:01:13.675Z,69.50
2019-03-05T23:04:01.822Z,69.50
2019-03-05T23:06:31.898Z,69.60
2019-03-05T23:09:01.898Z,69.60
2019-03-05T23:11:31.558Z,69.60
2019-03-05T23:14:01.935Z,69.60
2019-03-05T23:16:32.036Z,69.40
2019-03-05T23:19:05.972Z,69.50
2019-03-05T23:21:35.171Z,69.50
2019-03-05T23:24:04.205Z,69.40
2019-03-05T23:26:33.775Z,69.40
2019-03-05T23:29:02.808Z,69.40
2019-03-05T23:31:31.825Z,69.40
2019-03-05T23:34:03.288Z,69.40
2019-03-05T23:36:35.404Z,69.40
2019-03-05T23:39:07.488Z,69.40
2019-03-05T23:41:36.415Z,69.30
2019-03-05T23:44:05.658Z,69.20
2019-03-05T23:46:34.657Z,69.10
2019-03-05T23:49:03.735Z,69.10
2019-03-05T23:51:32.752Z,69.00
2019-03-05T23:54:01.908Z,69.20
2019-03-05T23:56:33.050Z,69.20
2019-03-05T23:59:03.418Z,69.40
